METAR AND TAF INFORMATION
METAR FOR LEST
ADDS - METARS form results

(0854 UTC 29 October 2020)
Data provider http://aviationweather.gov/metar/data/
 
METAR text: LEST 290830Z 16004KT 120V180 9999 BKN025 12/10 Q1026 NOSIG
Conditions at: LEST (SANTIAGO/LABACOL, ES) observed 0830 UTC 29 October 2020
Temperature: 12.0°C (54°F)
Dewpoint: 10.0°C (50°F) [RH = 88%]
Pressure (altimeter): 30.30 inches Hg (1026.0 mb)
Winds: from the SSE (160 degrees) at 5 MPH (4 knots; 2.1 m/s)
Visibility: 6 or more miles (10+ km)
Ceiling: 2500 feet AGL
Clouds: broken clouds at 2500 feet AGL
Weather: no significant weather observed at this time

METAR text: LEST 290800Z 16004KT 9999 BKN025 11/09 Q1026 NOSIG
Conditions at: LEST (SANTIAGO/LABACOL, ES) observed 0800 UTC 29 October 2020
Temperature: 11.0°C (52°F)
Dewpoint: 9.0°C (48°F) [RH = 87%]
Pressure (altimeter): 30.30 inches Hg (1026.0 mb)
Winds: from the SSE (160 degrees) at 5 MPH (4 knots; 2.1 m/s)
Visibility: 6 or more miles (10+ km)
Ceiling: 2500 feet AGL
Clouds: broken clouds at 2500 feet AGL
Weather: no significant weather observed at this time

Forecast for: LEST (SANTIAGO/LABACOL, ES)
Text: TAF LEST 290500Z 2906/3006 22006KT 8000 SCT015 BKN035 TX16/2915Z TN10/3006Z
Forecast period: 0600 UTC 29 October 2020 to 0600 UTC 30 October 2020
Forecast type: FROM: standard forecast or significant change
Winds: from the SW (220 degrees) at 7 MPH (6 knots; 3.1 m/s)
Visibility: 5 miles (8 km)
Ceiling: 3500 feet AGL
Clouds: scattered clouds at 1500 feet AGL
broken clouds at 3500 feet AGL
Weather: no significant weather forecast for this period
Text: PROB40
Forecast period: 0000 to 0600 UTC 30 October 2020
Forecast type: TEMPORARY: The following changes expected for less than half the time period
Visibility: 0.93 miles (1.50 km)
Ceiling: unknown
Clouds: missing
Weather: BCFG  (patches of fog)

 AIRPORT MAP

 RUNWAY INFORMATION
Runway 17 Runway length 10499 ft Runway width 148 ft
Runway elevation 1170 ft Runway displaced threshold 394 ft Runway heading 166
Runway 35 Runway length 10499 ft Runway width 148 ft
Runway elevation 1196 ft Runway displaced threshold 0 ft Runway heading 346

 AIRPORT FREQUENCIES
Type APP Name APP Frequency 118.2 MHZ
Type GND Name GND Frequency 121.7 MHZ
Type TWR Name TWR Frequency 118.75 MHZ

 AIRPORT NEAR NAVIGATION AIDS
Type NDB Name Santiago Frequency 417 KHZ
Type VOR-DME Name Santiago Frequency 116400 KHZ